Time;durP1;ratioP1;P1;durP2;ratioP2;P2;SDS_P1;SDS_P2;PMS_P1;PMS_P2;Temp;Humidity;BMP_temperature;BMP_pressure;BME280_temperature;BME280_humidity;BME280_pressure;Samples;Min_cycle;Max_cycle;Signal;HPM_P1;HPM_P2
2022/04/14 00:01:49;;;;;;;1.57;1.23;;;6.00;99.90;;;;;;6238441;28;20296;-77
2022/04/14 00:04:54;;;;;;;3.03;1.20;;;6.00;99.90;;;;;;6237961;28;20292;-76
2022/04/14 00:07:59;;;;;;;1.67;1.20;;;5.90;99.90;;;;;;6238076;28;20291;-76
2022/04/14 00:11:04;;;;;;;3.60;1.43;;;5.80;99.90;;;;;;6223803;28;20401;-77
2022/04/14 00:14:11;;;;;;;1.93;1.10;;;5.90;99.90;;;;;;6213595;28;20293;-77
2022/04/14 00:17:18;;;;;;;4.77;1.40;;;5.90;99.90;;;;;;6213401;28;20273;-76
2022/04/14 00:20:23;;;;;;;2.43;1.27;;;5.90;99.90;;;;;;6214235;28;20293;-77
2022/04/14 00:23:29;;;;;;;1.70;1.30;;;5.90;99.90;;;;;;6213508;28;20300;-77
2022/04/14 00:26:34;;;;;;;1.90;1.47;;;6.00;99.90;;;;;;6213738;28;20269;-76
2022/04/14 00:29:40;;;;;;;3.80;1.43;;;6.00;99.90;;;;;;6228163;28;20584;-76
2022/04/14 00:32:46;;;;;;;1.83;1.30;;;5.90;99.90;;;;;;6211875;28;20298;-77
2022/04/14 00:35:52;;;;;;;3.00;1.40;;;5.90;99.90;;;;;;6213496;28;20303;-77
2022/04/14 00:38:57;;;;;;;4.53;1.53;;;5.80;99.90;;;;;;6213149;28;20308;-76
2022/04/14 00:42:08;;;;;;;3.90;1.60;;;5.90;99.90;;;;;;6212479;28;20297;-77
2022/04/14 00:45:14;;;;;;;1.73;1.40;;;5.90;99.90;;;;;;6213709;28;20301;-76
2022/04/14 00:48:20;;;;;;;2.97;1.50;;;5.90;99.90;;;;;;6213083;28;20302;-76
2022/04/14 00:51:26;;;;;;;1.47;1.20;;;5.90;99.90;;;;;;6213169;28;20296;-77
2022/04/14 00:54:32;;;;;;;1.93;1.37;;;5.90;99.90;;;;;;6212817;28;20297;-76
2022/04/14 00:57:37;;;;;;;2.43;1.23;;;5.80;99.90;;;;;;6211719;28;20289;-77
2022/04/14 01:00:43;;;;;;;2.27;1.87;;;5.80;99.90;;;;;;6212794;28;20519;-77
2022/04/14 01:03:50;;;;;;;2.10;1.93;;;5.90;99.90;;;;;;6212478;28;20330;-77
2022/04/14 01:06:56;;;;;;;4.77;1.40;;;5.90;99.90;;;;;;6212937;28;20272;-77
2022/04/14 01:10:01;;;;;;;4.30;1.90;;;5.90;99.90;;;;;;6224133;28;20299;-77
2022/04/14 01:13:09;;;;;;;3.90;1.70;;;5.90;99.90;;;;;;6236595;28;20292;-76
2022/04/14 01:16:14;;;;;;;5.00;1.70;;;5.90;99.90;;;;;;6237130;28;20281;-76
2022/04/14 01:19:21;;;;;;;1.70;1.60;;;6.00;99.90;;;;;;6236186;28;20602;-77
2022/04/14 01:22:34;;;;;;;4.83;1.97;;;5.90;99.90;;;;;;6235970;28;20300;-76
2022/04/14 01:25:41;;;;;;;3.70;1.80;;;5.90;99.90;;;;;;6237030;28;20275;-77
2022/04/14 01:28:46;;;;;;;2.37;1.93;;;5.90;99.90;;;;;;6236336;28;20296;-77
2022/04/14 01:31:53;;;;;;;2.57;1.90;;;5.90;99.90;;;;;;6236906;28;20283;-77
2022/04/14 01:34:58;;;;;;;4.13;1.77;;;5.90;99.90;;;;;;6235505;28;20429;-77
2022/04/14 01:38:04;;;;;;;2.20;2.00;;;5.90;99.90;;;;;;6236060;28;20304;-77
2022/04/14 01:41:11;;;;;;;3.40;2.10;;;5.90;99.90;;;;;;6219301;28;20308;-77
2022/04/14 01:44:16;;;;;;;3.93;1.80;;;5.90;99.90;;;;;;6236298;28;20312;-77
2022/04/14 01:47:21;;;;;;;2.57;2.00;;;5.90;99.90;;;;;;6236116;28;20296;-77
2022/04/14 01:50:26;;;;;;;2.40;2.20;;;5.80;99.90;;;;;;6236808;28;20272;-77
2022/04/14 01:53:32;;;;;;;3.43;2.00;;;5.80;99.90;;;;;;6235934;28;20300;-76
2022/04/14 01:56:38;;;;;;;1.93;1.83;;;5.90;99.90;;;;;;6236526;28;20305;-77
2022/04/14 01:59:44;;;;;;;5.60;2.10;;;5.90;99.90;;;;;;6236264;28;20307;-77
2022/04/14 02:02:49;;;;;;;2.00;2.00;;;5.90;99.90;;;;;;6234380;28;20312;-77
2022/04/14 02:05:54;;;;;;;2.10;2.10;;;5.80;99.90;;;;;;6236065;28;20280;-77
2022/04/14 02:08:59;;;;;;;2.37;2.30;;;5.80;99.90;;;;;;6237966;28;20314;-77
2022/04/14 02:12:07;;;;;;;4.03;1.90;;;5.80;99.90;;;;;;6218437;28;20276;-77
2022/04/14 02:15:12;;;;;;;2.43;2.17;;;5.70;99.90;;;;;;6217022;28;20272;-77
2022/04/14 02:18:18;;;;;;;5.20;2.33;;;5.70;99.90;;;;;;6216222;28;20296;-77
2022/04/14 02:21:23;;;;;;;4.03;2.23;;;5.70;99.90;;;;;;6216681;28;20296;-76
2022/04/14 02:24:28;;;;;;;2.60;2.40;;;5.70;99.90;;;;;;6216610;28;20300;-77
2022/04/14 02:27:35;;;;;;;4.00;2.47;;;5.70;99.90;;;;;;6216752;28;20301;-77
2022/04/14 02:30:41;;;;;;;2.67;2.50;;;5.70;99.90;;;;;;6216315;28;20467;-76
2022/04/14 02:33:47;;;;;;;3.60;2.60;;;5.80;99.90;;;;;;6215984;28;20460;-76
2022/04/14 02:36:52;;;;;;;2.80;2.60;;;5.80;99.90;;;;;;6216099;28;20277;-76
2022/04/14 02:39:57;;;;;;;2.97;2.20;;;5.70;99.90;;;;;;6215949;28;20288;-76
2022/04/14 02:43:04;;;;;;;2.87;2.60;;;5.70;99.90;;;;;;6215620;28;20433;-76
2022/04/14 02:46:11;;;;;;;3.00;2.77;;;5.80;99.90;;;;;;6216405;28;20281;-77
2022/04/14 02:49:16;;;;;;;3.13;2.73;;;5.70;99.90;;;;;;6215885;28;20588;-76
2022/04/14 02:52:22;;;;;;;3.70;2.80;;;5.70;99.90;;;;;;6215700;28;20389;-77
2022/04/14 02:55:27;;;;;;;3.97;2.97;;;5.70;99.90;;;;;;6216570;28;20280;-77
2022/04/14 02:58:34;;;;;;;7.80;3.00;;;5.70;99.90;;;;;;6215432;28;20300;-76
2022/04/14 03:01:39;;;;;;;3.97;2.90;;;5.70;99.90;;;;;;6226446;28;20271;-76
2022/04/14 03:04:44;;;;;;;5.53;3.47;;;5.70;99.90;;;;;;6223641;28;20595;-76
2022/04/14 03:07:49;;;;;;;3.63;3.10;;;5.70;99.90;;;;;;6235323;28;20482;-77
2022/04/14 03:10:55;;;;;;;3.00;2.80;;;5.70;99.90;;;;;;6229105;28;20317;-76
2022/04/14 03:14:01;;;;;;;8.00;2.90;;;5.70;99.90;;;;;;6215468;28;20475;-76
2022/04/14 03:17:07;;;;;;;3.47;3.20;;;5.80;99.90;;;;;;6214017;28;20278;-77
2022/04/14 03:20:13;;;;;;;3.10;3.00;;;5.70;99.90;;;;;;6231344;28;20267;-76
2022/04/14 03:23:18;;;;;;;3.33;3.03;;;5.60;99.90;;;;;;6238630;28;20307;-76
2022/04/14 03:26:23;;;;;;;4.03;3.47;;;5.60;99.90;;;;;;6239342;28;20457;-77
2022/04/14 03:29:32;;;;;;;3.43;3.13;;;5.60;99.90;;;;;;6238881;28;20296;-77
2022/04/14 03:32:42;;;;;;;3.13;2.80;;;5.60;99.90;;;;;;6238671;28;20304;-76
2022/04/14 03:35:47;;;;;;;3.47;3.13;;;5.70;99.90;;;;;;6234207;28;20261;-77
2022/04/14 03:38:52;;;;;;;4.70;3.43;;;5.70;99.90;;;;;;6214655;28;20297;-77
2022/04/14 03:41:57;;;;;;;4.20;2.90;;;5.70;99.90;;;;;;6213855;28;20444;-77
2022/04/14 03:45:05;;;;;;;4.47;3.03;;;5.70;99.90;;;;;;6215053;28;20273;-76
2022/04/14 03:48:14;;;;;;;3.17;2.97;;;5.70;99.90;;;;;;6214747;28;20301;-77
2022/04/14 03:51:19;;;;;;;4.20;2.90;;;5.60;99.90;;;;;;6214279;28;20277;-77
2022/04/14 03:54:24;;;;;;;3.47;3.20;;;5.60;99.90;;;;;;6214107;28;20470;-77
2022/04/14 03:57:30;;;;;;;3.37;3.07;;;5.50;99.90;;;;;;6214323;28;20300;-76
2022/04/14 04:00:36;;;;;;;3.20;3.00;;;5.50;99.90;;;;;;6214343;28;20273;-76
2022/04/14 04:03:41;;;;;;;4.20;2.80;;;5.50;99.90;;;;;;6213811;28;20304;-76
2022/04/14 04:06:46;;;;;;;3.27;3.00;;;5.40;99.90;;;;;;6214320;28;20276;-76
2022/04/14 04:09:51;;;;;;;3.57;3.20;;;5.40;99.90;;;;;;6224243;28;20303;-76
2022/04/14 04:12:57;;;;;;;6.43;3.20;;;5.40;99.90;;;;;;6237943;28;20305;-76
2022/04/14 04:16:04;;;;;;;3.13;3.03;;;5.40;99.90;;;;;;6238419;28;20275;-75
2022/04/14 04:19:10;;;;;;;3.00;2.77;;;5.40;99.90;;;;;;6237978;28;20303;-76
2022/04/14 04:22:15;;;;;;;4.07;2.93;;;5.40;99.90;;;;;;6237698;28;20551;-76
2022/04/14 04:25:20;;;;;;;4.23;3.17;;;5.40;99.90;;;;;;6237970;28;20568;-76
2022/04/14 04:28:47;;;;;;;3.43;3.17;;;5.40;99.90;;;;;;6237645;28;20590;-76
2022/04/14 04:31:53;;;;;;;3.50;3.20;;;5.40;99.90;;;;;;6237499;28;20271;-76
2022/04/14 04:34:59;;;;;;;3.27;3.07;;;5.40;99.90;;;;;;6236666;28;20283;-76
2022/04/14 04:38:05;;;;;;;5.07;3.17;;;5.30;99.90;;;;;;6237294;28;20607;-76
2022/04/14 04:41:10;;;;;;;4.17;3.47;;;5.40;99.90;;;;;;6237483;28;20272;-76
2022/04/14 04:44:15;;;;;;;5.30;3.40;;;5.40;99.90;;;;;;6237205;28;20614;-76
2022/04/14 04:47:22;;;;;;;3.63;3.33;;;5.30;99.90;;;;;;6236913;28;20312;-76
2022/04/14 04:50:27;;;;;;;3.27;3.03;;;5.30;99.90;;;;;;6237490;28;20276;-76
2022/04/14 04:53:32;;;;;;;5.17;3.07;;;5.40;99.90;;;;;;6236900;28;20303;-76
2022/04/14 04:56:37;;;;;;;3.90;3.50;;;5.30;99.90;;;;;;6237488;28;20274;-76
2022/04/14 04:59:42;;;;;;;5.70;3.30;;;5.30;99.90;;;;;;6236856;28;20585;-76
2022/04/14 05:02:49;;;;;;;3.70;3.50;;;5.30;99.90;;;;;;6237004;28;20295;-76
2022/04/14 05:05:55;;;;;;;5.60;3.73;;;5.30;99.90;;;;;;6236898;28;20590;-76
2022/04/14 05:09:00;;;;;;;7.03;3.50;;;5.30;99.90;;;;;;6236203;28;20304;-77
2022/04/14 05:12:07;;;;;;;7.07;3.50;;;5.30;99.90;;;;;;6214225;28;20265;-76
2022/04/14 05:15:12;;;;;;;3.77;3.50;;;5.30;99.90;;;;;;6212554;28;20284;-76
2022/04/14 05:18:19;;;;;;;5.60;3.93;;;5.40;99.90;;;;;;6212392;28;20248;-76
2022/04/14 05:21:24;;;;;;;3.90;3.60;;;5.40;99.90;;;;;;6212917;28;20277;-76
2022/04/14 05:24:32;;;;;;;5.03;3.97;;;5.40;99.90;;;;;;6211939;28;20604;-76
2022/04/14 05:27:39;;;;;;;4.20;3.83;;;5.40;99.90;;;;;;6226660;28;20331;-76
2022/04/14 05:30:44;;;;;;;10.00;4.10;;;5.40;99.90;;;;;;6212558;28;20280;-76
2022/04/14 05:33:51;;;;;;;5.67;3.93;;;5.40;99.90;;;;;;6212277;28;20296;-75
2022/04/14 05:36:56;;;;;;;6.13;3.93;;;5.50;99.90;;;;;;6212321;28;20276;-77
2022/04/14 05:40:01;;;;;;;11.83;6.27;;;5.50;99.90;;;;;;6212104;28;20276;-76
2022/04/14 05:43:06;;;;;;;6.03;4.47;;;5.50;99.90;;;;;;6211271;28;20301;-78
2022/04/14 05:46:11;;;;;;;7.10;4.50;;;5.50;99.90;;;;;;6212021;28;20317;-78
2022/04/14 05:49:18;;;;;;;6.50;4.00;;;5.60;99.90;;;;;;6211746;28;20301;-75
2022/04/14 05:52:23;;;;;;;4.10;3.70;;;5.50;99.90;;;;;;6211629;28;20296;-75
2022/04/14 05:55:29;;;;;;;5.93;4.07;;;5.60;99.90;;;;;;6212231;28;20435;-75
2022/04/14 05:58:34;;;;;;;9.13;4.53;;;5.50;99.90;;;;;;6211887;28;20299;-76
2022/04/14 06:01:39;;;;;;;5.07;4.03;;;5.60;99.90;;;;;;6211827;28;20272;-76
2022/04/14 06:04:46;;;;;;;5.40;3.87;;;5.60;99.90;;;;;;6211323;28;20575;-76
2022/04/14 06:07:51;;;;;;;4.90;4.40;;;5.60;99.90;;;;;;6211379;28;20297;-76
2022/04/14 06:10:57;;;;;;;7.73;4.50;;;5.60;99.90;;;;;;6231775;28;20292;-76
2022/04/14 06:14:02;;;;;;;6.00;4.10;;;5.60;99.90;;;;;;6235748;28;20299;-76
2022/04/14 06:17:08;;;;;;;4.67;4.23;;;5.70;99.90;;;;;;6235384;28;20275;-76
2022/04/14 06:20:15;;;;;;;11.23;5.10;;;5.70;99.90;;;;;;6236169;28;20276;-76
2022/04/14 06:23:21;;;;;;;5.27;4.43;;;5.60;99.90;;;;;;6235449;28;20298;-76
2022/04/14 06:26:26;;;;;;;6.40;4.33;;;5.70;99.90;;;;;;6236068;28;20296;-76
2022/04/14 06:29:31;;;;;;;4.97;4.47;;;5.70;99.90;;;;;;6235695;28;20295;-76
2022/04/14 06:32:37;;;;;;;9.40;5.70;;;5.70;99.90;;;;;;6234691;28;20547;-76
2022/04/14 06:35:43;;;;;;;6.00;4.63;;;5.70;99.90;;;;;;6235677;28;20275;-76
2022/04/14 06:38:49;;;;;;;5.03;4.60;;;5.70;99.90;;;;;;6235421;28;20295;-76
2022/04/14 06:41:55;;;;;;;8.17;5.17;;;5.70;99.90;;;;;;6218543;28;20272;-76
2022/04/14 06:45:01;;;;;;;7.67;4.70;;;5.70;99.90;;;;;;6235188;28;20296;-76
2022/04/14 06:48:07;;;;;;;8.43;4.53;;;5.70;99.90;;;;;;6235242;28;20299;-76
2022/04/14 06:51:15;;;;;;;5.20;4.63;;;5.70;99.90;;;;;;6235383;28;20283;-76
2022/04/14 06:54:20;;;;;;;9.43;5.23;;;5.70;99.90;;;;;;6217629;28;20300;-76
2022/04/14 06:57:25;;;;;;;7.00;4.67;;;5.70;99.90;;;;;;6239011;28;20315;-76
2022/04/14 07:00:31;;;;;;;10.70;4.83;;;5.70;99.90;;;;;;6239949;28;20276;-76
2022/04/14 07:03:36;;;;;;;6.97;5.37;;;5.70;99.90;;;;;;6239491;28;20308;-76
2022/04/14 07:06:42;;;;;;;5.70;4.97;;;5.70;99.90;;;;;;6239868;28;20312;-76
2022/04/14 07:09:48;;;;;;;6.20;5.60;;;5.80;99.90;;;;;;6235256;28;20493;-76
2022/04/14 07:12:53;;;;;;;6.30;5.13;;;5.80;99.90;;;;;;6214839;28;20518;-76
2022/04/14 07:16:00;;;;;;;6.33;4.90;;;5.90;99.90;;;;;;6215423;28;20306;-76
2022/04/14 07:19:05;;;;;;;6.63;5.10;;;5.80;99.90;;;;;;6214785;28;20300;-76
2022/04/14 07:22:12;;;;;;;8.23;5.00;;;5.90;99.90;;;;;;6214811;28;20273;-76
2022/04/14 07:25:18;;;;;;;7.10;5.10;;;5.90;99.90;;;;;;6215146;28;20290;-76
2022/04/14 07:28:23;;;;;;;7.63;5.77;;;5.90;99.90;;;;;;6214632;28;20383;-76
2022/04/14 07:31:33;;;;;;;7.63;5.27;;;6.00;99.90;;;;;;6214301;28;20276;-76
2022/04/14 07:34:38;;;;;;;6.23;4.90;;;6.00;99.90;;;;;;6214655;28;20296;-76
2022/04/14 07:37:45;;;;;;;8.17;5.90;;;6.00;99.90;;;;;;6214370;28;20300;-75
2022/04/14 07:40:50;;;;;;;6.17;5.07;;;6.00;99.90;;;;;;6215096;28;20297;-75
2022/04/14 07:43:56;;;;;;;12.37;5.30;;;6.00;99.90;;;;;;6214311;28;20300;-76
2022/04/14 07:47:01;;;;;;;8.83;5.07;;;5.90;99.90;;;;;;6214027;28;20296;-76
2022/04/14 07:50:07;;;;;;;13.47;5.90;;;6.00;99.90;;;;;;6214784;28;20272;-76
2022/04/14 07:53:16;;;;;;;8.60;5.53;;;6.00;99.90;;;;;;6214194;28;20300;-76
2022/04/14 07:56:22;;;;;;;8.30;5.80;;;6.10;99.90;;;;;;6213877;28;20277;-76
2022/04/14 07:59:28;;;;;;;7.20;5.70;;;6.10;99.90;;;;;;6213661;28;20300;-76
2022/04/14 08:02:33;;;;;;;9.77;6.03;;;5.90;99.90;;;;;;6213664;28;20289;-75
2022/04/14 08:05:41;;;;;;;8.37;5.77;;;6.10;99.90;;;;;;6213786;28;20452;-75
2022/04/14 08:08:48;;;;;;;11.37;6.27;;;6.10;99.90;;;;;;6215551;28;20580;-76
2022/04/14 08:11:53;;;;;;;8.70;5.93;;;6.10;99.90;;;;;;6238423;28;20269;-75
2022/04/14 08:14:58;;;;;;;8.73;5.90;;;6.20;99.90;;;;;;6237581;28;20279;-76
2022/04/14 08:18:06;;;;;;;10.90;6.17;;;6.20;99.90;;;;;;6237768;28;20308;-75
2022/04/14 08:21:11;;;;;;;9.40;6.70;;;6.20;99.90;;;;;;6238147;28;20285;-75
2022/04/14 08:24:18;;;;;;;7.83;6.20;;;6.10;99.90;;;;;;6237401;28;20458;-76
2022/04/14 08:27:23;;;;;;;8.60;5.83;;;6.20;99.90;;;;;;6237323;28;20297;-75
2022/04/14 08:30:30;;;;;;;7.47;6.43;;;6.20;99.90;;;;;;6237894;28;20320;-76
2022/04/14 08:33:37;;;;;;;10.60;6.90;;;6.20;99.90;;;;;;6236958;28;20317;-76
2022/04/14 08:36:43;;;;;;;8.67;6.27;;;6.20;99.90;;;;;;6237675;28;20272;-76
2022/04/14 08:39:50;;;;;;;8.13;6.20;;;6.30;99.90;;;;;;6237217;28;20304;-76
2022/04/14 08:43:01;;;;;;;8.80;6.33;;;6.20;99.90;;;;;;6219336;28;20587;-76
2022/04/14 08:46:08;;;;;;;7.50;6.43;;;6.20;99.90;;;;;;6237105;28;20274;-76
2022/04/14 08:49:14;;;;;;;10.43;6.20;;;6.30;99.90;;;;;;6236968;28;20323;-76
2022/04/14 08:52:20;;;;;;;10.20;6.17;;;6.40;99.90;;;;;;6236692;28;20292;-77
2022/04/14 08:55:26;;;;;;;11.07;6.30;;;6.40;99.90;;;;;;6237602;28;20273;-76
2022/04/14 08:58:33;;;;;;;6.97;6.27;;;6.40;99.90;;;;;;6236829;28;20300;-76
2022/04/14 09:01:39;;;;;;;11.10;6.60;;;6.40;99.90;;;;;;6237238;28;20272;-77
2022/04/14 09:04:46;;;;;;;7.87;5.80;;;6.50;99.90;;;;;;6236745;28;20301;-77
2022/04/14 09:07:52;;;;;;;7.80;7.00;;;6.50;99.90;;;;;;6236281;28;20308;-76
2022/04/14 09:10:58;;;;;;;7.00;6.30;;;6.70;99.90;;;;;;6224122;28;20296;-76
2022/04/14 09:14:03;;;;;;;7.00;6.40;;;6.60;99.90;;;;;;6212341;28;20305;-77
2022/04/14 09:17:11;;;;;;;9.07;6.50;;;6.60;99.90;;;;;;6212276;28;20276;-77
2022/04/14 09:20:36;;;;;;;7.03;6.37;;;6.50;99.90;;;;;;6212452;28;20277;-76
2022/04/14 09:23:52;;;;;;;7.20;5.73;;;6.50;99.90;;;;;;6212372;28;20316;-76
2022/04/14 09:26:58;;;;;;;8.47;6.23;;;6.50;99.90;;;;;;6212315;28;20464;-77
2022/04/14 09:30:07;;;;;;;6.40;5.80;;;6.60;99.90;;;;;;6212583;28;20290;-77
2022/04/14 09:33:18;;;;;;;5.60;5.23;;;6.60;99.90;;;;;;6211824;28;20305;-76
2022/04/14 09:36:35;;;;;;;6.30;5.80;;;6.60;99.90;;;;;;6212220;28;20273;-76
2022/04/14 09:40:02;;;;;;;7.43;6.83;;;6.60;99.90;;;;;;6211681;28;20309;-77
2022/04/14 09:43:08;;;;;;;10.47;7.13;;;6.50;99.90;;;;;;6212052;28;20289;-76
2022/04/14 09:46:19;;;;;;;8.10;7.17;;;6.60;99.90;;;;;;6212349;28;20274;-76
2022/04/14 09:49:25;;;;;;;10.33;7.03;;;6.60;99.90;;;;;;6211912;28;20304;-77
2022/04/14 09:52:30;;;;;;;8.73;7.30;;;6.60;99.90;;;;;;6211529;28;20297;-76
2022/04/14 09:55:37;;;;;;;14.07;8.13;;;6.60;99.90;;;;;;6212291;28;20276;-76
2022/04/14 09:58:43;;;;;;;8.57;7.60;;;6.60;99.90;;;;;;6211561;28;20301;-77
2022/04/14 10:01:50;;;;;;;7.90;7.13;;;6.50;99.90;;;;;;6210907;28;20274;-77
2022/04/14 10:04:57;;;;;;;8.63;6.73;;;6.50;99.90;;;;;;6211524;28;20293;-76
2022/04/14 10:08:05;;;;;;;8.83;7.23;;;6.50;99.90;;;;;;6211326;28;20297;-77
2022/04/14 10:11:11;;;;;;;8.67;7.80;;;6.50;99.90;;;;;;6233627;28;20304;-76
2022/04/14 10:14:23;;;;;;;8.63;7.10;;;6.60;99.90;;;;;;6235713;28;20296;-76
2022/04/14 10:17:30;;;;;;;7.53;6.77;;;6.60;99.90;;;;;;6235752;28;20292;-76
2022/04/14 10:20:37;;;;;;;10.77;7.37;;;6.60;99.90;;;;;;6236321;28;20272;-74
2022/04/14 10:23:42;;;;;;;7.77;7.00;;;6.60;99.90;;;;;;6235203;28;20490;-76
2022/04/14 10:26:49;;;;;;;8.73;7.03;;;6.60;99.90;;;;;;6235772;28;20273;-76
2022/04/14 10:29:56;;;;;;;12.93;7.67;;;6.60;99.90;;;;;;6237441;28;20304;-76
2022/04/14 10:33:01;;;;;;;10.10;7.77;;;6.60;99.90;;;;;;6240082;28;20296;-76
2022/04/14 10:36:08;;;;;;;11.80;7.27;;;6.60;99.90;;;;;;6240394;28;20272;-76
2022/04/14 10:39:15;;;;;;;10.40;7.67;;;6.70;99.90;;;;;;6240168;28;20307;-76
2022/04/14 10:42:25;;;;;;;7.80;7.10;;;6.60;99.90;;;;;;6240012;28;20289;-75
2022/04/14 10:45:52;;;;;;;8.63;7.60;;;6.60;99.90;;;;;;6239855;28;20272;-76
2022/04/14 10:49:12;;;;;;;9.50;7.30;;;6.60;99.90;;;;;;6239534;28;20300;-76
2022/04/14 10:52:25;;;;;;;9.80;7.63;;;6.60;99.90;;;;;;6239579;28;20297;-77
2022/04/14 10:55:39;;;;;;;9.07;7.20;;;6.50;99.90;;;;;;6239943;28;20547;-75
2022/04/14 10:58:55;;;;;;;8.20;7.17;;;6.50;99.90;;;;;;6239524;28;20300;-75
2022/04/14 11:02:05;;;;;;;8.73;7.83;;;6.50;99.90;;;;;;6239538;28;20279;-75
2022/04/14 11:05:45;;;;;;;10.17;7.40;;;6.50;99.90;;;;;;6239840;28;20273;-75
2022/04/14 11:08:50;;;;;;;10.15;7.13;;;6.60;99.90;;;;;;6239222;28;20591;-74
2022/04/14 11:12:05;;;;;;;7.80;7.10;;;6.60;99.90;;;;;;6218530;28;20268;-75
2022/04/14 11:15:12;;;;;;;7.67;6.87;;;6.70;99.90;;;;;;6214410;28;20563;-75
2022/04/14 11:18:20;;;;;;;10.03;7.10;;;6.50;99.90;;;;;;6214983;28;20325;-76
2022/04/14 11:21:33;;;;;;;7.00;6.50;;;6.50;99.90;;;;;;6215515;28;20274;-75
2022/04/14 11:24:43;;;;;;;7.80;6.97;;;6.50;99.90;;;;;;6214544;28;20296;-75
2022/04/14 11:28:25;;;;;;;8.33;6.80;;;6.60;99.90;;;;;;6214492;28;20296;-75
2022/04/14 11:31:55;;;;;;;7.07;6.37;;;6.60;99.90;;;;;;6215370;28;20269;-74
2022/04/14 11:35:13;;;;;;;7.40;6.70;;;6.50;99.90;;;;;;6213706;28;20454;-74
2022/04/14 11:38:58;;;;;;;7.77;6.53;;;6.60;99.90;;;;;;6229189;28;20292;-76
2022/04/14 11:42:10;;;;;;;7.03;6.43;;;6.60;99.90;;;;;;6213404;28;20277;-76
2022/04/14 11:45:21;;;;;;;7.27;6.67;;;6.70;99.90;;;;;;6214940;28;20278;-76
2022/04/14 11:48:26;;;;;;;8.97;6.70;;;6.70;99.90;;;;;;6214256;28;20580;-76
2022/04/14 11:51:33;;;;;;;8.60;6.50;;;6.80;99.90;;;;;;6214734;28;20273;-76
2022/04/14 11:54:39;;;;;;;8.63;6.90;;;6.80;99.90;;;;;;6214263;28;20296;-76
2022/04/14 11:57:48;;;;;;;7.07;6.47;;;6.80;99.90;;;;;;6213857;28;20296;-77
2022/04/14 12:00:53;;;;;;;7.72;6.90;;;6.70;99.90;;;;;;6214142;28;20457;-77
2022/04/14 12:03:58;;;;;;;7.90;7.07;;;6.70;99.90;;;;;;6212328;28;20296;-78
2022/04/14 12:07:06;;;;;;;7.17;6.50;;;6.60;99.90;;;;;;6213991;28;20581;-77
2022/04/14 12:10:12;;;;;;;8.80;7.90;;;6.60;99.90;;;;;;6227250;28;20351;-77
2022/04/14 12:13:19;;;;;;;11.17;8.03;;;6.60;99.90;;;;;;6237758;28;20296;-77
2022/04/14 12:16:33;;;;;;;11.53;8.13;;;6.60;99.90;;;;;;6238097;28;20269;-77
2022/04/14 12:19:44;;;;;;;8.77;7.40;;;6.50;99.90;;;;;;6237584;28;20320;-77
2022/04/14 12:22:51;;;;;;;9.83;7.43;;;6.40;99.90;;;;;;6235989;28;20296;-77
2022/04/14 12:25:57;;;;;;;9.00;7.73;;;6.40;99.90;;;;;;6237839;28;20539;-77
2022/04/14 12:29:03;;;;;;;8.70;7.60;;;6.50;99.90;;;;;;6237381;28;20336;-77
2022/04/14 12:32:15;;;;;;;8.57;7.77;;;6.50;99.90;;;;;;6237370;28;20277;-77
2022/04/14 12:35:30;;;;;;;8.97;7.87;;;6.40;99.90;;;;;;6237999;28;20272;-75
2022/04/14 12:38:46;;;;;;;11.83;8.53;;;6.40;99.90;;;;;;6237385;28;20480;-76
2022/04/14 12:41:51;;;;;;;8.30;7.50;;;6.50;99.90;;;;;;6237563;28;20282;-76
2022/04/14 12:45:04;;;;;;;9.20;8.30;;;6.40;99.90;;;;;;6237041;28;20296;-76
2022/04/14 12:48:13;;;;;;;12.40;8.47;;;6.40;99.90;;;;;;6236770;28;20321;-77
2022/04/14 12:51:29;;;;;;;10.40;8.23;;;6.40;99.90;;;;;;6236141;28;20288;-78
2022/04/14 12:54:46;;;;;;;9.40;8.30;;;6.50;99.90;;;;;;6236229;28;20407;-77
2022/04/14 12:57:56;;;;;;;12.07;8.47;;;6.40;99.90;;;;;;6236515;28;20611;-78
2022/04/14 13:01:09;;;;;;;10.17;8.53;;;6.40;99.90;;;;;;6236509;28;20276;-77
2022/04/14 13:04:14;;;;;;;8.33;7.53;;;6.40;99.90;;;;;;6236394;28;20292;-77
2022/04/14 13:07:20;;;;;;;7.83;7.00;;;6.40;99.90;;;;;;6219484;28;20583;-77
2022/04/14 13:10:29;;;;;;;9.30;7.63;;;6.40;99.90;;;;;;6228065;28;20288;-77
2022/04/14 13:13:34;;;;;;;8.63;7.73;;;6.30;99.90;;;;;;6212193;28;20297;-79
2022/04/14 13:16:40;;;;;;;7.67;6.90;;;6.30;99.90;;;;;;6212406;28;20273;-77
2022/04/14 13:19:45;;;;;;;8.40;7.60;;;6.30;99.90;;;;;;6212009;28;20457;-76
2022/04/14 13:22:52;;;;;;;8.30;7.27;;;6.30;99.90;;;;;;6212332;28;20294;-77
2022/04/14 13:26:00;;;;;;;9.33;6.97;;;6.20;99.90;;;;;;6212615;28;20277;-77
2022/04/14 13:29:07;;;;;;;7.87;6.47;;;6.30;99.90;;;;;;6212026;28;20596;-77
2022/04/14 13:32:13;;;;;;;6.43;5.93;;;6.30;99.90;;;;;;6211624;28;20292;-77
2022/04/14 13:35:20;;;;;;;8.03;6.30;;;6.30;99.90;;;;;;6212621;28;20277;-76
2022/04/14 13:38:25;;;;;;;6.53;5.97;;;6.30;99.90;;;;;;6226363;28;20304;-77
2022/04/14 13:41:32;;;;;;;8.27;5.87;;;6.30;99.90;;;;;;6211788;28;20281;-76
2022/04/14 13:44:37;;;;;;;7.00;6.20;;;6.30;99.90;;;;;;6223448;28;20296;-76
2022/04/14 13:47:43;;;;;;;7.80;6.30;;;6.30;99.90;;;;;;6218863;28;20284;-76
2022/04/14 13:50:49;;;;;;;7.00;6.30;;;6.30;99.90;;;;;;6235500;28;20299;-76
2022/04/14 13:53:55;;;;;;;8.03;6.40;;;6.40;99.90;;;;;;6213274;28;20481;-77
2022/04/14 13:57:01;;;;;;;8.43;6.40;;;6.40;99.90;;;;;;6212260;28;20272;-76
2022/04/14 14:00:09;;;;;;;7.60;6.27;;;6.40;99.90;;;;;;6214729;28;20316;-79
2022/04/14 14:03:16;;;;;;;7.03;6.23;;;6.40;99.90;;;;;;6235283;28;20571;-75
2022/04/14 14:06:21;;;;;;;7.77;6.43;;;6.50;99.90;;;;;;6240190;28;20299;-76
2022/04/14 14:09:26;;;;;;;6.90;6.23;;;6.50;99.90;;;;;;6240089;28;20304;-76
2022/04/14 14:12:36;;;;;;;8.50;6.23;;;6.50;99.90;;;;;;6240676;28;20463;-77
2022/04/14 14:15:41;;;;;;;7.13;6.33;;;6.60;99.90;;;;;;6240209;28;20296;-76
2022/04/14 14:18:48;;;;;;;7.07;6.27;;;6.60;99.90;;;;;;6223506;28;20415;-76
2022/04/14 14:21:53;;;;;;;9.50;7.40;;;6.50;99.90;;;;;;6216418;28;20551;-76
2022/04/14 14:24:58;;;;;;;7.30;6.60;;;6.60;99.90;;;;;;6215851;28;20592;-77
2022/04/14 14:28:06;;;;;;;7.73;6.67;;;6.50;99.90;;;;;;6215800;28;20277;-77
2022/04/14 14:31:11;;;;;;;9.17;7.30;;;6.50;99.90;;;;;;6215960;28;20304;-76
2022/04/14 14:34:19;;;;;;;9.53;6.77;;;6.50;99.90;;;;;;6215822;28;20306;-76
2022/04/14 14:37:24;;;;;;;7.30;6.47;;;6.60;99.90;;;;;;6216165;28;20277;-76
2022/04/14 14:40:29;;;;;;;7.50;6.30;;;6.60;99.90;;;;;;6215784;28;20301;-76
2022/04/14 14:43:39;;;;;;;8.10;6.47;;;6.70;99.90;;;;;;6215591;28;20277;-76
2022/04/14 14:46:44;;;;;;;14.20;6.73;;;6.60;99.90;;;;;;6216072;28;20281;-76
2022/04/14 14:49:50;;;;;;;9.47;6.63;;;6.80;99.90;;;;;;6214895;28;20584;-76
2022/04/14 14:52:55;;;;;;;9.90;6.40;;;6.90;99.90;;;;;;6232011;28;20288;-76
2022/04/14 14:56:00;;;;;;;8.80;6.80;;;7.00;99.90;;;;;;6239303;28;20301;-76
2022/04/14 14:59:13;;;;;;;9.93;6.50;;;7.00;99.90;;;;;;6238453;28;20305;-75
2022/04/14 15:02:18;;;;;;;10.68;6.03;;;7.00;99.90;;;;;;6239892;28;20281;-76
2022/04/14 15:05:24;;;;;;;10.87;6.80;;;7.00;99.90;;;;;;6238865;28;20300;-76
2022/04/14 15:08:29;;;;;;;18.27;5.87;;;6.90;99.90;;;;;;6239592;28;20276;-76
2022/04/14 15:11:35;;;;;;;14.90;6.93;;;6.90;99.90;;;;;;6239465;28;20308;-76
2022/04/14 15:14:41;;;;;;;13.87;6.87;;;6.90;99.90;;;;;;6239164;28;20304;-76
2022/04/14 15:17:47;;;;;;;11.43;6.40;;;6.90;99.90;;;;;;6238881;28;20272;-76
2022/04/14 15:20:52;;;;;;;11.98;7.38;;;6.90;99.90;;;;;;6239273;28;20288;-75
2022/04/14 15:23:57;;;;;;;13.33;7.10;;;7.00;99.90;;;;;;6238825;28;20301;-75
2022/04/14 15:27:02;;;;;;;11.47;6.60;;;6.80;99.90;;;;;;6239400;28;20280;-75
2022/04/14 15:30:10;;;;;;;14.83;7.00;;;6.80;99.90;;;;;;6238734;28;20295;-77
2022/04/14 15:33:17;;;;;;;13.17;6.87;;;6.70;99.90;;;;;;6239365;28;20292;-76
2022/04/14 15:36:22;;;;;;;13.63;6.85;;;6.70;99.90;;;;;;6238846;28;20296;-76
2022/04/14 15:39:28;;;;;;;13.10;7.10;;;6.70;99.90;;;;;;6238274;28;20292;-75
2022/04/14 15:42:34;;;;;;;14.83;6.80;;;6.70;99.90;;;;;;6239157;28;20561;-77
2022/04/14 15:45:40;;;;;;;11.70;6.70;;;6.80;99.90;;;;;;6238442;28;20296;-77
2022/04/14 15:48:47;;;;;;;18.97;7.60;;;6.70;99.90;;;;;;6238591;28;20551;-76
2022/04/14 15:51:52;;;;;;;10.07;6.43;;;6.60;99.90;;;;;;6230691;28;20266;-77
2022/04/14 15:54:58;;;;;;;9.57;6.60;;;6.70;99.90;;;;;;6214144;28;20297;-77
2022/04/14 15:58:04;;;;;;;11.47;6.80;;;6.60;99.90;;;;;;6214582;28;20276;-77
2022/04/14 16:01:12;;;;;;;12.80;6.60;;;6.70;99.90;;;;;;6214245;28;20325;-76
2022/04/14 16:04:17;;;;;;;9.30;6.33;;;6.70;99.90;;;;;;6214159;28;20484;-77
2022/04/14 16:07:24;;;;;;;8.33;6.63;;;6.70;99.90;;;;;;6214662;28;20276;-76
2022/04/14 16:13:52;;;;;;;10.57;6.50;;;6.60;99.90;;;;;;6237385;28;20318;-75
2022/04/14 16:16:59;;;;;;;9.70;6.17;;;6.60;99.90;;;;;;6238285;28;20273;-77
2022/04/14 16:20:06;;;;;;;9.80;6.27;;;6.60;99.90;;;;;;6238030;28;20447;-75
2022/04/14 16:23:13;;;;;;;12.37;6.50;;;6.50;99.90;;;;;;6237979;28;20276;-76
2022/04/14 16:26:18;;;;;;;9.33;6.00;;;6.50;99.90;;;;;;6219815;28;20476;-76
2022/04/14 16:29:23;;;;;;;11.63;6.03;;;6.60;99.90;;;;;;6237220;28;20300;-75